Airport View

Enter AWOS ICAO identifier for current METAR.

ex. KFNL

KABE 212351Z 20003KT 10SM CLR 23/11 A3017 RMK AO2 SLP213 T02280111 10306 20222 53002

22 Sep 2019 00:14

Phone: 610-266-3579

Other Area AWOS: KXLL - KUKT - KCKZ - K22N

TAF KABE 212320Z 2200/2224 VRB03KT P6SM SCT250 FM221000 00000KT 5SM BR SCT050 FM221200 VRB03KT P6SM SCT050 FM221700 22006KT P6SM SCT050